Decoded Metar for DTTZ (TOZEUR in TUNISIA) (IATA:TOE) | Meteo·Mobile Aviation Weather
aviador You're here:

DTTZ Decoded Metar

TOZEUR in TUNISIA
Report Time2018-12-14 17:00:00
UTC Time2018-12-14 17:29:44
Flight Rules mvfr MVFR
Wind270° at 14 kt
W.Decomp.*RWY 27: 14.0 kt HW 0.2 kt LCW
W.Rank270° ranks 5
Current wind is above 270° avg. (8.6)
Visibility6000 m
Phenomena:N/A
Clouds:N/A
Expected CloudBase > 3,200 ft AGL from Temp-Dew spread
CeilingNone
Temp12°C (ISA -2)
Dew Point04°C (58% RH)
AAT5.6°C
QNH1010 hPa
Density Alt233 ft
Elevation305 ft
Report Wrong Elevation
Raw Report
METAR DTTZ 141700Z 27014KT 6000 NSC 12/04 Q1010 NOSIG=####018000102####
SACO20 SKBO 141705 RRK

Extra information for DTTZ:More info

Metar Taf Metar & Taf Last 4 Metars F.Rules Stats Wind Profile Meteogram Temp Stats Airport Information Weather charts Add Link Nearby VenuesMetar ALERT Operation Metar Decoded Social comments